sensor_id;sensor_type;location;lat;lon;timestamp;temperature;humidity
23311;DHT22;11828;51.508;18.118;2023-04-01T00:01:02;25.80;34.80
23311;DHT22;11828;51.508;18.118;2023-04-01T00:03:29;25.90;34.70
23311;DHT22;11828;51.508;18.118;2023-04-01T00:05:58;25.90;34.50
23311;DHT22;11828;51.508;18.118;2023-04-01T00:08:25;26.00;34.40
23311;DHT22;11828;51.508;18.118;2023-04-01T00:10:53;26.00;34.30
23311;DHT22;11828;51.508;18.118;2023-04-01T00:13:19;26.00;34.00
23311;DHT22;11828;51.508;18.118;2023-04-01T00:15:48;25.80;34.00
23311;DHT22;11828;51.508;18.118;2023-04-01T00:18:14;25.60;34.30
23311;DHT22;11828;51.508;18.118;2023-04-01T00:20:45;25.60;34.40
23311;DHT22;11828;51.508;18.118;2023-04-01T00:23:12;25.70;34.40
23311;DHT22;11828;51.508;18.118;2023-04-01T00:25:39;25.80;34.20
23311;DHT22;11828;51.508;18.118;2023-04-01T00:28:05;25.70;34.10
23311;DHT22;11828;51.508;18.118;2023-04-01T00:30:32;25.60;34.20
23311;DHT22;11828;51.508;18.118;2023-04-01T00:32:58;25.50;34.40
23311;DHT22;11828;51.508;18.118;2023-04-01T00:35:25;25.50;34.70
23311;DHT22;11828;51.508;18.118;2023-04-01T00:37:51;25.40;34.80
23311;DHT22;11828;51.508;18.118;2023-04-01T00:40:27;25.50;34.80
23311;DHT22;11828;51.508;18.118;2023-04-01T00:42:59;25.50;34.70
23311;DHT22;11828;51.508;18.118;2023-04-01T00:48:07;25.50;34.50
23311;DHT22;11828;51.508;18.118;2023-04-01T00:50:37;25.50;34.50
23311;DHT22;11828;51.508;18.118;2023-04-01T00:53:05;25.50;34.50
23311;DHT22;11828;51.508;18.118;2023-04-01T00:55:35;25.50;34.40
23311;DHT22;11828;51.508;18.118;2023-04-01T00:58:05;25.50;34.40
23311;DHT22;11828;51.508;18.118;2023-04-01T01:00:34;25.50;34.50
23311;DHT22;11828;51.508;18.118;2023-04-01T01:03:01;25.50;34.40
23311;DHT22;11828;51.508;18.118;2023-04-01T01:15:30;25.60;34.10
23311;DHT22;11828;51.508;18.118;2023-04-01T01:21:12;25.70;34.20
23311;DHT22;11828;51.508;18.118;2023-04-01T01:27:09;25.60;34.40
23311;DHT22;11828;51.508;18.118;2023-04-01T01:37:55;25.90;34.10
23311;DHT22;11828;51.508;18.118;2023-04-01T01:40:24;25.90;34.00
23311;DHT22;11828;51.508;18.118;2023-04-01T01:42:58;26.00;34.20
23311;DHT22;11828;51.508;18.118;2023-04-01T01:45:27;26.00;34.00
23311;DHT22;11828;51.508;18.118;2023-04-01T01:47:55;26.10;33.90
23311;DHT22;11828;51.508;18.118;2023-04-01T01:50:24;26.10;33.90
23311;DHT22;11828;51.508;18.118;2023-04-01T01:52:59;26.10;33.80
23311;DHT22;11828;51.508;18.118;2023-04-01T01:55:32;26.10;33.80
23311;DHT22;11828;51.508;18.118;2023-04-01T01:58:52;26.10;33.80
23311;DHT22;11828;51.508;18.118;2023-04-01T02:00:59;26.10;33.80
23311;DHT22;11828;51.508;18.118;2023-04-01T02:03:29;26.10;33.90
23311;DHT22;11828;51.508;18.118;2023-04-01T02:06:01;26.10;34.00
23311;DHT22;11828;51.508;18.118;2023-04-01T02:08:39;26.20;33.90
23311;DHT22;11828;51.508;18.118;2023-04-01T02:11:17;26.20;33.90
23311;DHT22;11828;51.508;18.118;2023-04-01T02:13:58;26.20;34.00
23311;DHT22;11828;51.508;18.118;2023-04-01T02:16:34;26.20;33.80
23311;DHT22;11828;51.508;18.118;2023-04-01T02:19:04;26.30;33.90
23311;DHT22;11828;51.508;18.118;2023-04-01T02:21:35;26.40;33.70
23311;DHT22;11828;51.508;18.118;2023-04-01T02:24:06;26.50;33.50
23311;DHT22;11828;51.508;18.118;2023-04-01T02:26:35;26.50;33.40
23311;DHT22;11828;51.508;18.118;2023-04-01T02:29:02;26.50;33.50
23311;DHT22;11828;51.508;18.118;2023-04-01T02:31:30;26.40;33.40
23311;DHT22;11828;51.508;18.118;2023-04-01T02:33:57;26.40;33.50
23311;DHT22;11828;51.508;18.118;2023-04-01T02:36:24;26.40;33.50
23311;DHT22;11828;51.508;18.118;2023-04-01T02:38:51;26.30;33.60
23311;DHT22;11828;51.508;18.118;2023-04-01T02:41:18;26.30;33.60
23311;DHT22;11828;51.508;18.118;2023-04-01T02:43:44;26.20;33.70
23311;DHT22;11828;51.508;18.118;2023-04-01T02:46:10;26.20;33.80
23311;DHT22;11828;51.508;18.118;2023-04-01T02:48:36;26.20;33.90
23311;DHT22;11828;51.508;18.118;2023-04-01T02:51:03;26.10;34.10
23311;DHT22;11828;51.508;18.118;2023-04-01T02:53:29;26.00;34.20
23311;DHT22;11828;51.508;18.118;2023-04-01T02:55:55;25.90;34.10
23311;DHT22;11828;51.508;18.118;2023-04-01T02:58:21;25.80;34.30
23311;DHT22;11828;51.508;18.118;2023-04-01T03:00:48;25.80;34.50
23311;DHT22;11828;51.508;18.118;2023-04-01T03:03:14;25.70;34.60
23311;DHT22;11828;51.508;18.118;2023-04-01T03:05:40;25.70;34.70
23311;DHT22;11828;51.508;18.118;2023-04-01T03:08:06;25.70;34.70
23311;DHT22;11828;51.508;18.118;2023-04-01T03:10:33;25.50;34.80
23311;DHT22;11828;51.508;18.118;2023-04-01T03:12:59;25.60;34.90
23311;DHT22;11828;51.508;18.118;2023-04-01T03:15:25;25.50;34.90
23311;DHT22;11828;51.508;18.118;2023-04-01T03:17:51;25.50;35.00
23311;DHT22;11828;51.508;18.118;2023-04-01T03:20:17;25.50;35.00
23311;DHT22;11828;51.508;18.118;2023-04-01T03:22:43;25.60;35.10
23311;DHT22;11828;51.508;18.118;2023-04-01T03:25:10;25.60;35.00
23311;DHT22;11828;51.508;18.118;2023-04-01T03:27:36;25.70;35.00
23311;DHT22;11828;51.508;18.118;2023-04-01T03:30:04;25.80;34.90
23311;DHT22;11828;51.508;18.118;2023-04-01T03:32:31;25.80;34.80
23311;DHT22;11828;51.508;18.118;2023-04-01T03:34:58;25.80;34.90
23311;DHT22;11828;51.508;18.118;2023-04-01T03:37:24;25.80;34.80
23311;DHT22;11828;51.508;18.118;2023-04-01T03:39:51;25.80;35.00
23311;DHT22;11828;51.508;18.118;2023-04-01T03:42:17;25.90;34.90
23311;DHT22;11828;51.508;18.118;2023-04-01T03:44:43;26.00;34.80
23311;DHT22;11828;51.508;18.118;2023-04-01T03:47:09;26.10;34.50
23311;DHT22;11828;51.508;18.118;2023-04-01T03:49:36;26.10;34.60
23311;DHT22;11828;51.508;18.118;2023-04-01T03:52:02;26.20;34.60
23311;DHT22;11828;51.508;18.118;2023-04-01T03:54:28;26.10;34.50
23311;DHT22;11828;51.508;18.118;2023-04-01T03:56:54;26.10;34.60
23311;DHT22;11828;51.508;18.118;2023-04-01T03:59:20;26.00;34.60
23311;DHT22;11828;51.508;18.118;2023-04-01T04:01:47;26.10;34.70
23311;DHT22;11828;51.508;18.118;2023-04-01T04:04:13;26.10;34.70
23311;DHT22;11828;51.508;18.118;2023-04-01T04:06:40;26.10;34.60
23311;DHT22;11828;51.508;18.118;2023-04-01T04:09:06;26.20;34.70
23311;DHT22;11828;51.508;18.118;2023-04-01T04:11:32;26.20;34.60
23311;DHT22;11828;51.508;18.118;2023-04-01T04:13:59;26.20;34.60
23311;DHT22;11828;51.508;18.118;2023-04-01T04:16:25;26.30;34.60
23311;DHT22;11828;51.508;18.118;2023-04-01T04:18:52;26.30;34.60
23311;DHT22;11828;51.508;18.118;2023-04-01T04:21:18;26.30;34.50
23311;DHT22;11828;51.508;18.118;2023-04-01T04:23:44;26.40;34.50
23311;DHT22;11828;51.508;18.118;2023-04-01T04:26:12;26.30;34.50
23311;DHT22;11828;51.508;18.118;2023-04-01T04:28:40;26.40;34.50
23311;DHT22;11828;51.508;18.118;2023-04-01T04:31:07;26.40;34.40
23311;DHT22;11828;51.508;18.118;2023-04-01T04:33:34;26.40;34.40
23311;DHT22;11828;51.508;18.118;2023-04-01T04:36:01;26.30;34.60
23311;DHT22;11828;51.508;18.118;2023-04-01T04:38:29;26.20;34.60
23311;DHT22;11828;51.508;18.118;2023-04-01T04:40:55;26.30;34.90
23311;DHT22;11828;51.508;18.118;2023-04-01T04:43:22;26.30;34.90
23311;DHT22;11828;51.508;18.118;2023-04-01T04:45:48;26.20;35.00
23311;DHT22;11828;51.508;18.118;2023-04-01T04:48:16;26.20;35.10
23311;DHT22;11828;51.508;18.118;2023-04-01T04:50:45;26.30;35.20
23311;DHT22;11828;51.508;18.118;2023-04-01T04:53:14;26.30;35.20
23311;DHT22;11828;51.508;18.118;2023-04-01T04:55:46;26.40;35.20
23311;DHT22;11828;51.508;18.118;2023-04-01T04:58:13;26.40;35.20
23311;DHT22;11828;51.508;18.118;2023-04-01T05:00:39;26.30;35.20
23311;DHT22;11828;51.508;18.118;2023-04-01T05:03:07;26.30;35.30
23311;DHT22;11828;51.508;18.118;2023-04-01T05:05:34;26.30;35.40
23311;DHT22;11828;51.508;18.118;2023-04-01T05:08:00;26.30;35.50
23311;DHT22;11828;51.508;18.118;2023-04-01T05:10:27;26.40;35.60
23311;DHT22;11828;51.508;18.118;2023-04-01T05:12:53;26.50;35.60
23311;DHT22;11828;51.508;18.118;2023-04-01T05:15:19;26.70;35.60
23311;DHT22;11828;51.508;18.118;2023-04-01T05:17:45;26.80;35.30
23311;DHT22;11828;51.508;18.118;2023-04-01T05:20:13;26.80;35.10
23311;DHT22;11828;51.508;18.118;2023-04-01T05:22:42;26.80;35.10
23311;DHT22;11828;51.508;18.118;2023-04-01T05:25:08;26.80;35.10
23311;DHT22;11828;51.508;18.118;2023-04-01T05:27:35;26.80;35.20
23311;DHT22;11828;51.508;18.118;2023-04-01T05:30:02;26.80;35.10
23311;DHT22;11828;51.508;18.118;2023-04-01T05:32:30;26.80;35.20
23311;DHT22;11828;51.508;18.118;2023-04-01T05:34:57;26.80;35.20
23311;DHT22;11828;51.508;18.118;2023-04-01T05:37:23;26.80;35.20
23311;DHT22;11828;51.508;18.118;2023-04-01T05:39:49;26.80;35.20
23311;DHT22;11828;51.508;18.118;2023-04-01T05:42:15;26.80;35.30
23311;DHT22;11828;51.508;18.118;2023-04-01T05:44:42;26.80;35.20
23311;DHT22;11828;51.508;18.118;2023-04-01T05:47:08;26.70;35.30
23311;DHT22;11828;51.508;18.118;2023-04-01T05:49:34;26.70;35.30
23311;DHT22;11828;51.508;18.118;2023-04-01T05:52:01;26.70;35.30
23311;DHT22;11828;51.508;18.118;2023-04-01T05:54:27;26.70;35.50
23311;DHT22;11828;51.508;18.118;2023-04-01T05:56:53;26.70;35.60
23311;DHT22;11828;51.508;18.118;2023-04-01T05:59:19;26.80;35.60
23311;DHT22;11828;51.508;18.118;2023-04-01T06:01:46;26.90;35.70
23311;DHT22;11828;51.508;18.118;2023-04-01T06:04:17;26.90;35.60
23311;DHT22;11828;51.508;18.118;2023-04-01T06:06:44;26.90;35.40
23311;DHT22;11828;51.508;18.118;2023-04-01T06:09:16;27.00;35.50
23311;DHT22;11828;51.508;18.118;2023-04-01T06:15:20;26.80;35.50
23311;DHT22;11828;51.508;18.118;2023-04-01T06:21:06;26.80;35.80
23311;DHT22;11828;51.508;18.118;2023-04-01T06:23:40;26.90;35.80
23311;DHT22;11828;51.508;18.118;2023-04-01T06:26:37;27.00;35.60
23311;DHT22;11828;51.508;18.118;2023-04-01T06:29:39;27.10;35.70
23311;DHT22;11828;51.508;18.118;2023-04-01T06:32:20;27.00;35.60
23311;DHT22;11828;51.508;18.118;2023-04-01T06:46:40;26.90;35.80
23311;DHT22;11828;51.508;18.118;2023-04-01T06:49:39;26.90;36.20
23311;DHT22;11828;51.508;18.118;2023-04-01T06:52:25;26.90;35.80
23311;DHT22;11828;51.508;18.118;2023-04-01T06:55:20;26.90;35.80
23311;DHT22;11828;51.508;18.118;2023-04-01T06:57:56;26.80;35.90
23311;DHT22;11828;51.508;18.118;2023-04-01T07:00:33;26.80;36.10
23311;DHT22;11828;51.508;18.118;2023-04-01T07:03:21;26.80;36.20
23311;DHT22;11828;51.508;18.118;2023-04-01T07:05:53;26.90;36.20
23311;DHT22;11828;51.508;18.118;2023-04-01T07:08:25;26.80;36.00
23311;DHT22;11828;51.508;18.118;2023-04-01T07:11:03;26.80;36.80
23311;DHT22;11828;51.508;18.118;2023-04-01T07:13:34;26.80;36.20
23311;DHT22;11828;51.508;18.118;2023-04-01T07:16:17;26.90;36.20
23311;DHT22;11828;51.508;18.118;2023-04-01T07:19:12;27.00;36.30
23311;DHT22;11828;51.508;18.118;2023-04-01T07:21:56;27.20;36.20
23311;DHT22;11828;51.508;18.118;2023-04-01T07:24:33;27.40;36.00
23311;DHT22;11828;51.508;18.118;2023-04-01T07:27:00;27.70;35.90
23311;DHT22;11828;51.508;18.118;2023-04-01T07:29:27;27.90;35.50
23311;DHT22;11828;51.508;18.118;2023-04-01T07:43:18;28.20;34.40
23311;DHT22;11828;51.508;18.118;2023-04-01T07:49:04;28.30;34.60
23311;DHT22;11828;51.508;18.118;2023-04-01T07:51:43;28.40;34.40
23311;DHT22;11828;51.508;18.118;2023-04-01T08:00:05;28.80;33.60
23311;DHT22;11828;51.508;18.118;2023-04-01T08:03:03;28.80;33.50
23311;DHT22;11828;51.508;18.118;2023-04-01T08:05:56;28.80;33.60
23311;DHT22;11828;51.508;18.118;2023-04-01T08:08:40;28.80;33.80
23311;DHT22;11828;51.508;18.118;2023-04-01T08:11:29;28.90;33.80
23311;DHT22;11828;51.508;18.118;2023-04-01T08:23:24;28.70;34.10
23311;DHT22;11828;51.508;18.118;2023-04-01T08:25:32;28.70;34.10
23311;DHT22;11828;51.508;18.118;2023-04-01T08:30:52;28.60;34.80
23311;DHT22;11828;51.508;18.118;2023-04-01T08:33:26;28.60;34.60
23311;DHT22;11828;51.508;18.118;2023-04-01T08:36:10;28.70;35.00
23311;DHT22;11828;51.508;18.118;2023-04-01T08:38:58;28.70;35.00
23311;DHT22;11828;51.508;18.118;2023-04-01T08:56:53;28.70;34.60
23311;DHT22;11828;51.508;18.118;2023-04-01T09:05:35;28.50;35.10
23311;DHT22;11828;51.508;18.118;2023-04-01T09:08:52;28.50;35.20
23311;DHT22;11828;51.508;18.118;2023-04-01T09:20:08;28.70;35.40
23311;DHT22;11828;51.508;18.118;2023-04-01T09:37:09;29.30;34.00
23311;DHT22;11828;51.508;18.118;2023-04-01T09:45:29;30.00;32.60
23311;DHT22;11828;51.508;18.118;2023-04-01T09:48:59;30.00;32.70
23311;DHT22;11828;51.508;18.118;2023-04-01T10:01:55;29.40;30.90
23311;DHT22;11828;51.508;18.118;2023-04-01T10:04:56;29.10;31.30
23311;DHT22;11828;51.508;18.118;2023-04-01T10:10:59;28.90;32.40
23311;DHT22;11828;51.508;18.118;2023-04-01T10:19:55;29.20;33.20
23311;DHT22;11828;51.508;18.118;2023-04-01T10:28:36;30.90;32.20
23311;DHT22;11828;51.508;18.118;2023-04-01T10:36:57;31.90;29.90
23311;DHT22;11828;51.508;18.118;2023-04-01T11:01:18;29.80;31.60
23311;DHT22;11828;51.508;18.118;2023-04-01T11:04:36;29.70;32.20
23311;DHT22;11828;51.508;18.118;2023-04-01T11:07:41;29.60;32.20
23311;DHT22;11828;51.508;18.118;2023-04-01T11:23:18;29.50;32.10
23311;DHT22;11828;51.508;18.118;2023-04-01T11:31:37;30.50;32.30
23311;DHT22;11828;51.508;18.118;2023-04-01T11:49:07;32.00;29.00
23311;DHT22;11828;51.508;18.118;2023-04-01T11:52:09;31.90;29.60
23311;DHT22;11828;51.508;18.118;2023-04-01T11:57:56;32.20;29.30
23311;DHT22;11828;51.508;18.118;2023-04-01T12:01:26;32.20;29.50
23311;DHT22;11828;51.508;18.118;2023-04-01T12:04:45;32.00;29.50
23311;DHT22;11828;51.508;18.118;2023-04-01T12:07:59;31.70;29.60
23311;DHT22;11828;51.508;18.118;2023-04-01T12:10:48;31.30;29.80
23311;DHT22;11828;51.508;18.118;2023-04-01T12:13:49;31.10;30.10
23311;DHT22;11828;51.508;18.118;2023-04-01T12:16:39;31.10;31.10
23311;DHT22;11828;51.508;18.118;2023-04-01T12:22:38;32.10;30.30
23311;DHT22;11828;51.508;18.118;2023-04-01T12:31:39;32.70;28.20
23311;DHT22;11828;51.508;18.118;2023-04-01T12:34:34;32.90;28.70
23311;DHT22;11828;51.508;18.118;2023-04-01T12:37:20;33.90;27.90
23311;DHT22;11828;51.508;18.118;2023-04-01T12:55:06;34.60;26.60
23311;DHT22;11828;51.508;18.118;2023-04-01T12:58:03;34.50;26.60
23311;DHT22;11828;51.508;18.118;2023-04-01T13:00:54;34.30;26.60
23311;DHT22;11828;51.508;18.118;2023-04-01T13:18:26;32.20;28.20
23311;DHT22;11828;51.508;18.118;2023-04-01T13:26:34;31.60;29.30
23311;DHT22;11828;51.508;18.118;2023-04-01T13:29:14;31.70;29.30
23311;DHT22;11828;51.508;18.118;2023-04-01T13:44:15;31.80;29.10
23311;DHT22;11828;51.508;18.118;2023-04-01T14:04:50;31.90;28.30
23311;DHT22;11828;51.508;18.118;2023-04-01T14:22:26;31.00;28.50
23311;DHT22;11828;51.508;18.118;2023-04-01T14:31:13;30.10;29.40
23311;DHT22;11828;51.508;18.118;2023-04-01T14:48:31;29.20;30.30
23311;DHT22;11828;51.508;18.118;2023-04-01T14:51:33;29.00;30.40
23311;DHT22;11828;51.508;18.118;2023-04-01T14:54:13;29.00;30.70
23311;DHT22;11828;51.508;18.118;2023-04-01T14:57:13;29.00;30.40
23311;DHT22;11828;51.508;18.118;2023-04-01T14:59:51;28.90;30.30
23311;DHT22;11828;51.508;18.118;2023-04-01T15:10:44;28.80;30.60
23311;DHT22;11828;51.508;18.118;2023-04-01T15:19:36;28.70;31.10
23311;DHT22;11828;51.508;18.118;2023-04-01T15:22:39;28.60;31.00
23311;DHT22;11828;51.508;18.118;2023-04-01T15:25:33;28.60;31.30
23311;DHT22;11828;51.508;18.118;2023-04-01T15:28:27;28.50;31.10
23311;DHT22;11828;51.508;18.118;2023-04-01T15:39:13;28.30;31.40
23311;DHT22;11828;51.508;18.118;2023-04-01T15:56:10;28.00;31.40
23311;DHT22;11828;51.508;18.118;2023-04-01T16:02:27;27.90;31.30
23311;DHT22;11828;51.508;18.118;2023-04-01T16:17:04;27.50;32.00
23311;DHT22;11828;51.508;18.118;2023-04-01T16:19:53;27.40;32.80
23311;DHT22;11828;51.508;18.118;2023-04-01T16:22:53;27.40;32.20
23311;DHT22;11828;51.508;18.118;2023-04-01T16:25:35;27.30;32.00
23311;DHT22;11828;51.508;18.118;2023-04-01T16:28:23;27.30;32.10
23311;DHT22;11828;51.508;18.118;2023-04-01T16:31:13;27.30;32.30
23311;DHT22;11828;51.508;18.118;2023-04-01T16:34:06;27.30;32.30
23311;DHT22;11828;51.508;18.118;2023-04-01T16:42:22;27.20;32.30
23311;DHT22;11828;51.508;18.118;2023-04-01T16:47:40;27.20;32.20
23311;DHT22;11828;51.508;18.118;2023-04-01T16:50:21;27.20;32.30
23311;DHT22;11828;51.508;18.118;2023-04-01T16:53:02;27.40;32.10
23311;DHT22;11828;51.508;18.118;2023-04-01T16:58:25;27.40;32.10
23311;DHT22;11828;51.508;18.118;2023-04-01T17:01:43;27.20;32.10
23311;DHT22;11828;51.508;18.118;2023-04-01T17:18:43;27.10;32.20
23311;DHT22;11828;51.508;18.118;2023-04-01T17:28:14;27.00;32.40
23311;DHT22;11828;51.508;18.118;2023-04-01T17:30:50;26.80;32.30
23311;DHT22;11828;51.508;18.118;2023-04-01T17:42:54;26.60;33.60
23311;DHT22;11828;51.508;18.118;2023-04-01T17:48:18;26.50;33.10
23311;DHT22;11828;51.508;18.118;2023-04-01T17:51:10;26.50;33.00
23311;DHT22;11828;51.508;18.118;2023-04-01T18:12:00;26.40;33.20
23311;DHT22;11828;51.508;18.118;2023-04-01T18:17:25;26.30;33.40
23311;DHT22;11828;51.508;18.118;2023-04-01T18:26:02;26.20;33.40
23311;DHT22;11828;51.508;18.118;2023-04-01T18:28:38;26.10;33.50
23311;DHT22;11828;51.508;18.118;2023-04-01T18:31:22;26.00;33.60
23311;DHT22;11828;51.508;18.118;2023-04-01T18:36:51;26.00;33.60
23311;DHT22;11828;51.508;18.118;2023-04-01T18:39:30;25.90;33.60
23311;DHT22;11828;51.508;18.118;2023-04-01T18:48:27;25.90;33.70
23311;DHT22;11828;51.508;18.118;2023-04-01T18:51:01;25.70;33.50
23311;DHT22;11828;51.508;18.118;2023-04-01T18:53:42;25.60;33.70
23311;DHT22;11828;51.508;18.118;2023-04-01T18:56:39;25.70;33.80
23311;DHT22;11828;51.508;18.118;2023-04-01T18:59:21;25.60;33.70
23311;DHT22;11828;51.508;18.118;2023-04-01T19:05:11;25.70;33.50
23311;DHT22;11828;51.508;18.118;2023-04-01T19:07:49;25.60;33.50
23311;DHT22;11828;51.508;18.118;2023-04-01T19:16:10;25.80;33.20
23311;DHT22;11828;51.508;18.118;2023-04-01T19:30:55;26.00;33.10
23311;DHT22;11828;51.508;18.118;2023-04-01T19:33:50;26.00;32.90
23311;DHT22;11828;51.508;18.118;2023-04-01T19:39:31;26.10;32.90
23311;DHT22;11828;51.508;18.118;2023-04-01T19:42:08;26.00;32.80
23311;DHT22;11828;51.508;18.118;2023-04-01T19:44:58;26.10;32.80
23311;DHT22;11828;51.508;18.118;2023-04-01T19:53:42;25.80;32.80
23311;DHT22;11828;51.508;18.118;2023-04-01T19:56:19;25.70;32.70
23311;DHT22;11828;51.508;18.118;2023-04-01T20:01:57;25.40;33.00
23311;DHT22;11828;51.508;18.118;2023-04-01T20:04:34;25.30;33.20
23311;DHT22;11828;51.508;18.118;2023-04-01T20:07:12;25.20;33.30
23311;DHT22;11828;51.508;18.118;2023-04-01T20:15:04;25.20;33.40
23311;DHT22;11828;51.508;18.118;2023-04-01T20:17:53;25.30;33.30
23311;DHT22;11828;51.508;18.118;2023-04-01T20:20:21;25.40;33.20
23311;DHT22;11828;51.508;18.118;2023-04-01T20:25:47;25.40;33.40
23311;DHT22;11828;51.508;18.118;2023-04-01T20:31:03;25.50;33.10
23311;DHT22;11828;51.508;18.118;2023-04-01T20:44:14;25.10;33.10
23311;DHT22;11828;51.508;18.118;2023-04-01T20:50:28;24.90;33.50
23311;DHT22;11828;51.508;18.118;2023-04-01T21:01:33;25.00;33.10
23311;DHT22;11828;51.508;18.118;2023-04-01T21:09:48;25.10;32.80
23311;DHT22;11828;51.508;18.118;2023-04-01T21:12:49;25.00;32.60
23311;DHT22;11828;51.508;18.118;2023-04-01T21:38:18;24.80;33.10
23311;DHT22;11828;51.508;18.118;2023-04-01T22:04:47;24.20;33.20
23311;DHT22;11828;51.508;18.118;2023-04-01T22:07:16;24.20;33.60
23311;DHT22;11828;51.508;18.118;2023-04-01T22:15:24;24.20;33.20
23311;DHT22;11828;51.508;18.118;2023-04-01T22:18:13;24.30;33.00
23311;DHT22;11828;51.508;18.118;2023-04-01T22:20:57;24.40;32.80
23311;DHT22;11828;51.508;18.118;2023-04-01T22:26:33;24.60;32.40
23311;DHT22;11828;51.508;18.118;2023-04-01T22:29:38;24.40;32.40
23311;DHT22;11828;51.508;18.118;2023-04-01T22:32:11;24.30;32.20
23311;DHT22;11828;51.508;18.118;2023-04-01T22:34:55;24.10;32.40
23311;DHT22;11828;51.508;18.118;2023-04-01T22:40:45;24.00;32.60
23311;DHT22;11828;51.508;18.118;2023-04-01T22:43:39;24.00;32.70
23311;DHT22;11828;51.508;18.118;2023-04-01T22:49:28;24.10;32.70
23311;DHT22;11828;51.508;18.118;2023-04-01T22:55:00;24.20;32.30
23311;DHT22;11828;51.508;18.118;2023-04-01T23:02:39;23.80;32.50
23311;DHT22;11828;51.508;18.118;2023-04-01T23:05:27;23.80;32.40
23311;DHT22;11828;51.508;18.118;2023-04-01T23:08:06;23.70;32.50
23311;DHT22;11828;51.508;18.118;2023-04-01T23:10:55;23.60;32.70
23311;DHT22;11828;51.508;18.118;2023-04-01T23:13:35;23.60;33.00
23311;DHT22;11828;51.508;18.118;2023-04-01T23:16:05;23.50;33.10
23311;DHT22;11828;51.508;18.118;2023-04-01T23:18:48;23.30;33.00
23311;DHT22;11828;51.508;18.118;2023-04-01T23:24:18;23.30;33.10
23311;DHT22;11828;51.508;18.118;2023-04-01T23:26:55;23.30;33.00
23311;DHT22;11828;51.508;18.118;2023-04-01T23:29:37;23.30;32.90
23311;DHT22;11828;51.508;18.118;2023-04-01T23:32:14;23.30;32.90
23311;DHT22;11828;51.508;18.118;2023-04-01T23:34:57;23.30;32.90
23311;DHT22;11828;51.508;18.118;2023-04-01T23:37:25;23.40;32.80
23311;DHT22;11828;51.508;18.118;2023-04-01T23:39:57;23.30;32.90
23311;DHT22;11828;51.508;18.118;2023-04-01T23:42:27;23.20;32.90
23311;DHT22;11828;51.508;18.118;2023-04-01T23:45:03;23.10;33.00
23311;DHT22;11828;51.508;18.118;2023-04-01T23:47:33;23.00;33.30
23311;DHT22;11828;51.508;18.118;2023-04-01T23:50:12;23.00;33.50
23311;DHT22;11828;51.508;18.118;2023-04-01T23:52:46;23.00;33.40
23311;DHT22;11828;51.508;18.118;2023-04-01T23:55:29;22.90;33.50
